createdAt,value
2018-03-31T00:02:22.793Z,5.82
2018-03-31T00:04:49.772Z,5.81
2018-03-31T00:07:16.798Z,5.83
2018-03-31T00:09:43.758Z,5.87
2018-03-31T00:12:10.746Z,5.90
2018-03-31T00:14:37.740Z,5.83
2018-03-31T00:17:04.767Z,5.66
2018-03-31T00:19:31.731Z,5.64
2018-03-31T00:21:58.792Z,5.66
2018-03-31T00:24:25.792Z,5.61
2018-03-31T00:26:53.067Z,5.55
2018-03-31T00:29:20.062Z,5.50
2018-03-31T00:31:47.062Z,5.50
2018-03-31T00:34:14.030Z,5.41
2018-03-31T00:36:41.143Z,5.41
2018-03-31T00:39:08.417Z,5.37
2018-03-31T00:41:35.449Z,5.29
2018-03-31T00:44:02.444Z,5.35
2018-03-31T00:46:29.424Z,5.30
2018-03-31T00:48:56.405Z,5.26
2018-03-31T00:51:23.399Z,5.08
2018-03-31T00:53:50.374Z,5.06
2018-03-31T00:56:17.364Z,5.08
2018-03-31T00:58:44.509Z,5.10
2018-03-31T01:01:11.483Z,5.19
2018-03-31T01:03:38.448Z,5.11
2018-03-31T01:06:05.638Z,5.12
2018-03-31T01:08:32.601Z,5.15
2018-03-31T01:10:59.845Z,5.22
2018-03-31T01:13:26.887Z,5.22
2018-03-31T01:15:53.846Z,5.18
2018-03-31T01:18:20.873Z,5.10
2018-03-31T01:20:47.874Z,5.00
2018-03-31T01:23:14.859Z,5.02
2018-03-31T01:25:42.130Z,4.97
2018-03-31T01:28:09.121Z,4.96
2018-03-31T01:30:36.105Z,4.97
2018-03-31T01:33:03.069Z,4.85
2018-03-31T01:35:30.057Z,4.82
2018-03-31T01:37:57.039Z,4.79
2018-03-31T01:40:24.020Z,4.73
2018-03-31T01:42:51.032Z,4.72
2018-03-31T01:45:18.023Z,4.72
2018-03-31T01:47:44.987Z,4.73
2018-03-31T01:50:12.118Z,4.78
2018-03-31T01:52:39.069Z,4.78
2018-03-31T01:55:06.082Z,4.76
2018-03-31T01:57:33.133Z,4.70
2018-03-31T02:00:00.112Z,4.62
2018-03-31T02:02:27.071Z,4.62
2018-03-31T02:04:54.073Z,4.64
2018-03-31T02:07:21.048Z,4.70
2018-03-31T02:09:48.042Z,4.67
2018-03-31T02:12:15.345Z,4.70
2018-03-31T02:14:42.294Z,4.66
2018-03-31T02:17:09.238Z,4.63
2018-03-31T02:19:36.231Z,4.50
2018-03-31T02:22:03.206Z,4.48
2018-03-31T02:24:30.209Z,4.51
2018-03-31T02:26:57.198Z,4.54
2018-03-31T02:29:24.188Z,4.51
2018-03-31T02:31:51.238Z,4.47
2018-03-31T02:34:18.236Z,4.39
2018-03-31T02:36:45.231Z,4.33
2018-03-31T02:39:12.200Z,4.36
2018-03-31T02:41:39.252Z,4.29
2018-03-31T02:44:06.243Z,4.30
2018-03-31T02:46:33.211Z,4.32
2018-03-31T02:49:00.226Z,4.38
2018-03-31T02:51:27.210Z,4.41
2018-03-31T02:53:54.189Z,4.41
2018-03-31T02:56:21.784Z,4.39
2018-03-31T02:58:48.759Z,4.27
2018-03-31T03:01:15.739Z,4.17
2018-03-31T03:03:42.771Z,4.22
2018-03-31T03:06:09.747Z,4.14
2018-03-31T03:08:36.697Z,4.11
2018-03-31T03:11:03.694Z,4.05
2018-03-31T03:13:30.676Z,4.12
2018-03-31T03:15:57.647Z,4.05
2018-03-31T03:18:24.662Z,3.99
2018-03-31T03:20:51.635Z,4.06
2018-03-31T03:23:18.593Z,4.11
2018-03-31T03:25:45.670Z,4.04
2018-03-31T03:28:12.650Z,4.06
2018-03-31T03:30:39.619Z,3.99
2018-03-31T03:33:06.645Z,3.88
2018-03-31T03:35:33.614Z,3.84
2018-03-31T03:38:00.568Z,3.84
2018-03-31T03:40:27.579Z,3.95
2018-03-31T03:42:54.524Z,3.98
2018-03-31T03:45:21.773Z,4.09
2018-03-31T03:47:49.027Z,4.03
2018-03-31T03:50:16.277Z,4.01
2018-03-31T03:52:43.225Z,4.02
2018-03-31T03:55:10.212Z,4.03
2018-03-31T03:57:37.258Z,4.09
2018-03-31T04:00:04.239Z,4.02
2018-03-31T04:02:31.233Z,4.01
2018-03-31T04:04:58.528Z,4.08
2018-03-31T04:07:25.542Z,4.05
2018-03-31T04:09:52.611Z,3.97
2018-03-31T04:12:19.608Z,3.96
2018-03-31T04:14:46.589Z,4.03
2018-03-31T04:17:13.602Z,4.00
2018-03-31T04:19:40.562Z,3.98
2018-03-31T04:22:07.801Z,3.86
2018-03-31T04:24:34.780Z,3.96
2018-03-31T04:27:01.761Z,3.86
2018-03-31T04:29:28.858Z,3.89
2018-03-31T04:31:55.865Z,3.93
2018-03-31T04:34:22.884Z,3.92
2018-03-31T04:36:49.853Z,3.92
2018-03-31T04:39:16.849Z,3.82
2018-03-31T04:41:44.057Z,3.92
2018-03-31T04:44:11.058Z,3.94
2018-03-31T04:46:38.079Z,3.99
2018-03-31T04:49:05.049Z,3.98
2018-03-31T04:51:32.036Z,4.01
2018-03-31T04:53:59.221Z,4.07
2018-03-31T04:56:26.192Z,4.05
2018-03-31T04:58:53.425Z,4.05
2018-03-31T05:01:20.437Z,4.00
2018-03-31T05:03:47.412Z,4.02
2018-03-31T05:06:14.394Z,4.06
2018-03-31T05:08:41.402Z,4.11
2018-03-31T05:11:08.428Z,4.12
2018-03-31T05:13:35.401Z,4.08
2018-03-31T05:16:02.396Z,4.18
2018-03-31T05:18:29.438Z,4.19
2018-03-31T05:20:56.401Z,4.20
2018-03-31T05:23:23.409Z,4.29
2018-03-31T05:25:50.381Z,4.30
2018-03-31T05:28:17.357Z,4.35
2018-03-31T05:30:44.358Z,4.44
2018-03-31T05:33:11.365Z,4.47
2018-03-31T05:35:38.363Z,4.50
2018-03-31T05:38:05.405Z,4.45
2018-03-31T05:40:32.460Z,4.48
2018-03-31T05:42:59.424Z,4.48
2018-03-31T05:45:26.433Z,4.43
2018-03-31T05:47:53.382Z,4.30
2018-03-31T05:50:20.350Z,4.22
2018-03-31T05:52:47.683Z,4.29
2018-03-31T05:55:14.927Z,4.19
2018-03-31T05:57:41.886Z,4.24
2018-03-31T06:00:08.869Z,4.26
2018-03-31T06:02:35.824Z,4.24
2018-03-31T06:05:02.784Z,4.07
2018-03-31T06:07:29.800Z,4.13
2018-03-31T06:09:56.760Z,4.25
2018-03-31T06:12:23.732Z,4.35
2018-03-31T06:14:50.820Z,4.44
2018-03-31T06:17:17.793Z,4.46
2018-03-31T06:19:44.791Z,4.33
2018-03-31T06:22:11.806Z,4.23
2018-03-31T06:24:38.815Z,4.33
2018-03-31T06:27:05.800Z,4.31
2018-03-31T06:29:32.802Z,4.08
2018-03-31T06:31:59.782Z,4.10
2018-03-31T06:34:26.760Z,4.24
2018-03-31T06:36:53.831Z,4.04
2018-03-31T06:39:20.838Z,4.09
2018-03-31T06:41:47.799Z,4.14
2018-03-31T06:44:14.852Z,4.21
2018-03-31T06:46:41.836Z,4.26
2018-03-31T06:49:09.025Z,4.28
2018-03-31T06:51:36.008Z,4.35
2018-03-31T06:54:02.969Z,4.20
2018-03-31T06:56:29.936Z,4.15
2018-03-31T06:58:56.939Z,4.19
2018-03-31T07:01:23.898Z,4.14
2018-03-31T07:03:50.939Z,4.15
2018-03-31T07:06:17.989Z,4.05
2018-03-31T07:08:44.942Z,4.05
2018-03-31T07:11:12.168Z,4.06
2018-03-31T07:13:39.167Z,4.12
2018-03-31T07:16:06.421Z,4.14
2018-03-31T07:18:33.733Z,4.09
2018-03-31T07:21:00.776Z,4.10
2018-03-31T07:23:27.754Z,4.11
2018-03-31T07:25:54.712Z,4.03
2018-03-31T07:28:21.776Z,4.00
2018-03-31T07:30:48.774Z,4.06
2018-03-31T07:33:15.746Z,4.19
2018-03-31T07:35:42.748Z,4.21
2018-03-31T07:38:09.720Z,4.19
2018-03-31T07:40:36.679Z,4.22
2018-03-31T07:43:03.675Z,4.17
2018-03-31T07:45:30.997Z,4.18
2018-03-31T07:47:57.974Z,4.12
2018-03-31T07:50:24.969Z,4.10
2018-03-31T07:52:51.920Z,4.13
2018-03-31T07:55:18.877Z,4.14
2018-03-31T07:57:46.227Z,4.18
2018-03-31T08:00:13.193Z,4.23
2018-03-31T08:02:40.168Z,4.31
2018-03-31T08:05:07.512Z,4.33
2018-03-31T08:07:34.504Z,4.34
2018-03-31T08:10:01.522Z,4.35
2018-03-31T08:12:28.520Z,4.37
2018-03-31T08:14:55.533Z,4.39
2018-03-31T08:17:22.559Z,4.44
2018-03-31T08:19:49.562Z,4.48
2018-03-31T08:22:16.536Z,4.53
2018-03-31T08:24:43.528Z,4.55
2018-03-31T08:27:10.545Z,4.51
2018-03-31T08:29:37.784Z,4.50
2018-03-31T08:32:04.755Z,4.56
2018-03-31T08:34:31.733Z,4.53
2018-03-31T08:36:58.692Z,4.58
2018-03-31T08:39:25.700Z,4.57
2018-03-31T08:41:52.686Z,4.63
2018-03-31T08:44:19.974Z,4.71
2018-03-31T08:46:46.943Z,4.72
2018-03-31T08:49:14.365Z,4.72
2018-03-31T08:51:41.329Z,4.70
2018-03-31T08:54:08.573Z,4.69
2018-03-31T08:56:35.576Z,4.67
2018-03-31T08:59:02.869Z,4.72
2018-03-31T09:01:30.121Z,4.77
2018-03-31T09:03:57.154Z,4.74
2018-03-31T09:06:24.730Z,4.82
2018-03-31T09:08:51.723Z,4.82
2018-03-31T09:11:19.155Z,4.87
2018-03-31T09:13:46.592Z,4.90
2018-03-31T09:16:13.555Z,4.83
2018-03-31T09:18:40.583Z,4.82
2018-03-31T09:21:07.558Z,4.89
2018-03-31T09:23:34.525Z,5.00
2018-03-31T09:26:01.540Z,5.02
2018-03-31T09:28:28.580Z,5.08
2018-03-31T09:30:55.575Z,5.17
2018-03-31T09:33:22.584Z,5.25
2018-03-31T09:35:49.889Z,5.31
2018-03-31T09:38:16.858Z,5.33
2018-03-31T09:40:44.126Z,5.42
2018-03-31T09:43:11.123Z,5.58
2018-03-31T09:45:38.216Z,5.67
2018-03-31T09:48:05.228Z,5.59
2018-03-31T09:50:32.207Z,5.55
2018-03-31T09:52:59.257Z,5.61
2018-03-31T09:55:26.257Z,5.68
2018-03-31T09:57:53.233Z,5.81
2018-03-31T10:00:20.207Z,5.90
2018-03-31T10:02:47.238Z,5.89
2018-03-31T10:05:14.210Z,5.70
2018-03-31T10:07:41.199Z,5.54
2018-03-31T10:10:08.288Z,5.47
2018-03-31T10:12:35.253Z,5.43
2018-03-31T10:15:02.227Z,5.40
2018-03-31T10:17:29.328Z,5.38
2018-03-31T10:19:56.287Z,5.30
2018-03-31T10:22:23.247Z,5.22
2018-03-31T10:24:50.258Z,5.20
2018-03-31T10:27:17.239Z,5.14
2018-03-31T10:29:44.919Z,5.20
2018-03-31T10:32:11.953Z,5.23
2018-03-31T10:34:38.908Z,5.27
2018-03-31T10:37:05.956Z,5.33
2018-03-31T10:39:32.981Z,5.32
2018-03-31T10:41:59.942Z,5.37
2018-03-31T10:44:26.917Z,5.42
2018-03-31T10:46:53.920Z,5.48
2018-03-31T10:49:21.389Z,5.65
2018-03-31T10:51:48.568Z,5.76
2018-03-31T10:54:15.530Z,5.79
2018-03-31T10:56:42.492Z,5.72
2018-03-31T10:59:09.464Z,5.72
2018-03-31T11:01:36.456Z,5.73
2018-03-31T11:04:03.442Z,5.76
2018-03-31T11:06:30.416Z,5.73
2018-03-31T11:08:57.479Z,5.68
2018-03-31T11:11:24.734Z,5.71
2018-03-31T11:13:51.730Z,5.75
2018-03-31T11:16:18.854Z,5.86
2018-03-31T11:18:45.893Z,5.97
2018-03-31T11:21:12.880Z,5.96
2018-03-31T11:23:39.939Z,5.96
2018-03-31T11:26:07.269Z,5.93
2018-03-31T11:28:34.236Z,5.99
2018-03-31T11:31:01.215Z,5.92
2018-03-31T11:33:28.175Z,6.02
2018-03-31T11:35:55.614Z,5.97
2018-03-31T11:38:22.676Z,5.99
2018-03-31T11:40:49.683Z,6.00
2018-03-31T11:43:16.666Z,6.01
2018-03-31T11:45:43.676Z,6.01
2018-03-31T11:48:10.966Z,6.03
2018-03-31T11:50:37.927Z,6.06
2018-03-31T11:53:05.286Z,6.03
2018-03-31T11:55:32.282Z,6.11
2018-03-31T11:57:59.232Z,6.06
2018-03-31T12:00:26.251Z,6.12
2018-03-31T12:02:53.572Z,6.20
2018-03-31T12:05:20.591Z,6.20
2018-03-31T12:07:47.877Z,6.20
2018-03-31T12:10:14.849Z,6.21
2018-03-31T12:12:41.827Z,6.35
2018-03-31T12:15:08.793Z,6.33
2018-03-31T12:17:36.062Z,6.31
2018-03-31T12:20:03.044Z,6.35
2018-03-31T12:22:30.147Z,6.51
2018-03-31T12:24:57.107Z,6.56
2018-03-31T12:27:24.119Z,6.55
2018-03-31T12:29:51.512Z,6.61
2018-03-31T12:32:18.765Z,6.64
2018-03-31T12:34:45.740Z,6.64
2018-03-31T12:37:12.711Z,6.70
2018-03-31T12:39:39.657Z,6.76
2018-03-31T12:42:06.692Z,6.71
2018-03-31T12:44:33.708Z,6.66
2018-03-31T12:47:00.673Z,6.66
2018-03-31T12:49:28.007Z,6.66
2018-03-31T12:51:55.072Z,6.69
2018-03-31T12:54:22.705Z,6.67
2018-03-31T12:56:49.659Z,6.76
2018-03-31T12:59:16.704Z,6.72
2018-03-31T13:01:43.803Z,6.81
2018-03-31T13:04:10.773Z,6.76
2018-03-31T13:06:37.770Z,6.70
2018-03-31T13:09:04.750Z,6.66
2018-03-31T13:11:31.777Z,6.62
2018-03-31T13:13:58.781Z,6.59
2018-03-31T13:16:26.515Z,6.81
2018-03-31T13:18:53.500Z,6.73
2018-03-31T13:21:20.497Z,6.71
2018-03-31T13:23:47.583Z,6.63
2018-03-31T13:26:14.561Z,6.65
2018-03-31T13:28:41.587Z,6.70
2018-03-31T13:31:08.562Z,6.65
2018-03-31T13:33:35.531Z,6.71
2018-03-31T13:36:02.498Z,6.73
2018-03-31T13:38:29.459Z,6.67
2018-03-31T13:40:56.542Z,6.62
2018-03-31T13:43:23.539Z,6.60
2018-03-31T13:45:50.501Z,6.61
2018-03-31T13:48:17.475Z,6.68
2018-03-31T13:50:44.479Z,6.69
2018-03-31T13:53:11.440Z,6.61
2018-03-31T13:55:38.422Z,6.62
2018-03-31T13:58:05.440Z,6.63
2018-03-31T14:00:32.728Z,6.65
2018-03-31T14:02:59.685Z,6.70
2018-03-31T14:05:26.708Z,6.79
2018-03-31T14:07:53.970Z,6.75
2018-03-31T14:10:20.992Z,6.75
2018-03-31T14:12:48.014Z,6.71
2018-03-31T14:15:15.001Z,6.80
2018-03-31T14:17:42.121Z,6.81
2018-03-31T14:20:09.194Z,6.72
2018-03-31T14:22:36.174Z,6.63
2018-03-31T14:25:03.146Z,6.61
2018-03-31T14:27:30.209Z,6.63
2018-03-31T14:29:57.198Z,6.72
2018-03-31T14:32:24.455Z,6.77
2018-03-31T14:34:51.447Z,6.80
2018-03-31T14:37:18.418Z,6.72
2018-03-31T14:39:45.378Z,6.66
2018-03-31T14:42:12.758Z,6.64
2018-03-31T14:44:40.005Z,6.65
2018-03-31T14:47:06.964Z,6.67
2018-03-31T14:49:33.974Z,6.67
2018-03-31T14:52:00.937Z,6.66
2018-03-31T14:54:29.235Z,6.66
2018-03-31T14:56:56.541Z,6.70
2018-03-31T14:59:23.504Z,6.78
2018-03-31T15:01:50.496Z,6.79
2018-03-31T15:04:17.495Z,6.73
2018-03-31T15:06:44.470Z,6.72
2018-03-31T15:09:11.419Z,6.72
2018-03-31T15:11:38.407Z,6.75
2018-03-31T15:14:05.361Z,6.78
2018-03-31T15:16:32.411Z,6.73
2018-03-31T15:18:59.419Z,6.77
2018-03-31T15:21:26.663Z,6.84
2018-03-31T15:23:53.912Z,6.87
2018-03-31T15:26:20.935Z,6.94
2018-03-31T15:28:47.897Z,6.84
2018-03-31T15:31:15.159Z,6.77
2018-03-31T15:33:42.170Z,6.75
2018-03-31T15:36:10.059Z,6.71
2018-03-31T15:38:37.030Z,6.71
2018-03-31T15:41:04.075Z,6.70
2018-03-31T15:43:31.044Z,6.68
2018-03-31T15:45:58.075Z,6.79
2018-03-31T15:48:25.066Z,6.76
2018-03-31T15:50:52.050Z,6.72
2018-03-31T15:53:19.065Z,6.71
2018-03-31T15:55:46.068Z,6.71
2018-03-31T15:58:13.028Z,6.72
2018-03-31T16:00:39.993Z,6.71
2018-03-31T16:03:06.983Z,6.72
2018-03-31T16:05:34.003Z,6.74
2018-03-31T16:08:01.027Z,6.75
2018-03-31T16:10:28.021Z,6.76
2018-03-31T16:12:55.176Z,6.77
2018-03-31T16:15:22.177Z,6.79
2018-03-31T16:17:49.204Z,6.79
2018-03-31T16:20:16.186Z,6.79
2018-03-31T16:22:43.151Z,6.80
2018-03-31T16:25:10.309Z,6.80
2018-03-31T16:27:37.244Z,6.78
2018-03-31T16:30:04.241Z,6.76
2018-03-31T16:32:31.228Z,6.70
2018-03-31T16:34:58.182Z,6.69
2018-03-31T16:37:25.127Z,6.66
2018-03-31T16:39:52.194Z,6.63
2018-03-31T16:42:19.171Z,6.61
2018-03-31T16:44:46.152Z,6.62
2018-03-31T16:47:13.164Z,6.68
2018-03-31T16:49:40.138Z,6.69
2018-03-31T16:52:07.273Z,6.65
2018-03-31T16:54:34.273Z,6.60
2018-03-31T16:57:01.310Z,6.61
2018-03-31T16:59:28.334Z,6.58
2018-03-31T17:01:55.350Z,6.57
2018-03-31T17:04:22.322Z,6.60
2018-03-31T17:06:49.336Z,6.58
2018-03-31T17:09:16.350Z,6.56
2018-03-31T17:11:43.326Z,6.58
2018-03-31T17:14:10.315Z,6.61
2018-03-31T17:16:37.431Z,6.58
2018-03-31T17:19:04.389Z,6.59
2018-03-31T17:21:31.344Z,6.59
2018-03-31T17:23:58.373Z,6.59
2018-03-31T17:26:25.400Z,6.53
2018-03-31T17:28:52.376Z,6.54
2018-03-31T17:31:19.392Z,6.56
2018-03-31T17:33:46.384Z,6.53
2018-03-31T17:36:13.370Z,6.52
2018-03-31T17:38:40.490Z,6.53
2018-03-31T17:41:07.431Z,6.53
2018-03-31T17:43:34.662Z,6.52
2018-03-31T17:46:01.650Z,6.50
2018-03-31T17:48:28.606Z,6.44
2018-03-31T17:50:55.596Z,6.40
2018-03-31T17:53:22.585Z,6.40
2018-03-31T17:55:49.871Z,6.40
2018-03-31T17:58:16.885Z,6.42
2018-03-31T18:00:43.863Z,6.39
2018-03-31T18:03:10.825Z,6.34
2018-03-31T18:05:37.786Z,6.36
2018-03-31T18:08:05.707Z,6.33
2018-03-31T18:10:32.715Z,6.31
2018-03-31T18:12:59.730Z,6.28
2018-03-31T18:15:26.762Z,6.21
2018-03-31T18:17:53.724Z,6.19
2018-03-31T18:20:20.702Z,6.18
2018-03-31T18:22:47.968Z,6.15
2018-03-31T18:25:14.942Z,6.11
2018-03-31T18:27:41.921Z,6.08
2018-03-31T18:30:09.228Z,6.10
2018-03-31T18:32:36.454Z,6.10
2018-03-31T18:37:36.633Z,6.04
2018-03-31T18:40:03.605Z,6.03
2018-03-31T18:42:30.599Z,6.03
2018-03-31T18:44:57.588Z,6.04
2018-03-31T18:47:24.564Z,6.04
2018-03-31T18:49:51.544Z,6.03
2018-03-31T18:52:18.556Z,6.03
2018-03-31T18:54:45.570Z,5.99
2018-03-31T18:57:12.640Z,6.00
2018-03-31T18:59:39.630Z,5.99
2018-03-31T19:02:06.584Z,5.96
2018-03-31T19:04:33.552Z,5.90
2018-03-31T19:07:00.596Z,5.91
2018-03-31T19:09:27.731Z,5.90
2018-03-31T19:11:54.716Z,5.93
2018-03-31T19:14:22.448Z,5.89
2018-03-31T19:16:55.139Z,5.86
2018-03-31T19:19:22.136Z,5.89
2018-03-31T19:21:49.100Z,5.84
2018-03-31T19:24:16.096Z,5.81
2018-03-31T19:26:43.103Z,5.82
2018-03-31T19:29:10.178Z,5.85
2018-03-31T19:31:37.157Z,5.79
2018-03-31T19:34:04.245Z,5.83
2018-03-31T19:36:31.214Z,5.78
2018-03-31T19:38:58.474Z,5.80
2018-03-31T19:41:26.362Z,5.82
2018-03-31T19:43:53.542Z,5.82
2018-03-31T19:46:20.825Z,5.80
2018-03-31T19:48:47.995Z,5.77
2018-03-31T19:51:14.990Z,5.83
2018-03-31T19:53:41.990Z,5.81
2018-03-31T19:56:11.102Z,5.79
2018-03-31T19:58:38.317Z,5.78
2018-03-31T20:01:05.295Z,5.70
2018-03-31T20:03:32.307Z,5.64
2018-03-31T20:05:59.272Z,5.58
2018-03-31T20:08:26.253Z,5.65
2018-03-31T20:10:53.340Z,5.65
2018-03-31T20:13:20.324Z,5.63
2018-03-31T20:15:47.302Z,5.65
2018-03-31T20:18:14.357Z,5.67
2018-03-31T20:20:41.326Z,5.68
2018-03-31T20:23:08.301Z,5.67
2018-03-31T20:25:35.404Z,5.58
2018-03-31T20:28:02.383Z,5.46
2018-03-31T20:30:29.342Z,5.48
2018-03-31T20:32:56.596Z,5.45
2018-03-31T20:35:23.558Z,5.41
2018-03-31T20:37:50.536Z,5.44
2018-03-31T20:40:17.552Z,5.42
2018-03-31T20:42:44.527Z,5.37
2018-03-31T20:45:11.490Z,5.37
2018-03-31T20:47:39.102Z,5.34
2018-03-31T20:50:06.177Z,5.34
2018-03-31T20:52:33.148Z,5.34
2018-03-31T20:55:00.143Z,5.34
2018-03-31T20:57:27.129Z,5.33
2018-03-31T20:59:54.091Z,5.34
2018-03-31T21:02:22.012Z,5.32
2018-03-31T21:04:48.962Z,5.29
2018-03-31T21:07:15.926Z,5.25
2018-03-31T21:09:42.990Z,5.18
2018-03-31T21:12:09.984Z,5.17
2018-03-31T21:14:36.953Z,5.11
2018-03-31T21:17:03.934Z,5.11
2018-03-31T21:19:30.933Z,5.04
2018-03-31T21:21:57.904Z,5.03
2018-03-31T21:24:24.952Z,5.06
2018-03-31T21:26:51.915Z,5.05
2018-03-31T21:29:18.863Z,5.02
2018-03-31T21:31:46.163Z,5.05
2018-03-31T21:34:13.165Z,4.99
2018-03-31T21:36:40.147Z,4.93
2018-03-31T21:39:07.521Z,4.88
2018-03-31T21:41:34.478Z,4.82
2018-03-31T21:44:01.470Z,4.80
2018-03-31T21:46:28.762Z,4.81
2018-03-31T21:48:56.016Z,4.80
2018-03-31T21:51:23.015Z,4.76
2018-03-31T21:53:50.319Z,4.50
2018-03-31T21:56:17.273Z,4.52
2018-03-31T21:58:45.467Z,4.51
2018-03-31T22:01:12.597Z,4.48
2018-03-31T22:03:39.560Z,4.55
2018-03-31T22:06:06.544Z,4.50
2018-03-31T22:08:33.920Z,4.54
2018-03-31T22:11:01.201Z,4.36
2018-03-31T22:13:34.082Z,4.42
2018-03-31T22:16:01.340Z,4.20
2018-03-31T22:18:28.298Z,4.20
2018-03-31T22:20:55.285Z,4.11
2018-03-31T22:23:22.484Z,4.18
2018-03-31T22:25:49.442Z,4.25
2018-03-31T22:28:16.444Z,4.30
2018-03-31T22:30:43.419Z,4.32
2018-03-31T22:33:10.392Z,4.32
2018-03-31T22:35:37.730Z,4.32
2018-03-31T22:38:04.744Z,4.27
2018-03-31T22:40:31.747Z,4.29
2018-03-31T22:42:58.724Z,4.26
2018-03-31T22:45:25.693Z,4.19
2018-03-31T22:47:52.653Z,4.16
2018-03-31T22:50:19.679Z,4.06
2018-03-31T22:52:46.657Z,4.08
2018-03-31T22:55:13.629Z,4.24
2018-03-31T22:57:40.621Z,4.06
2018-03-31T23:00:07.646Z,3.86
2018-03-31T23:02:34.614Z,4.02
2018-03-31T23:05:01.615Z,4.04
2018-03-31T23:07:28.559Z,4.12
2018-03-31T23:09:55.516Z,4.14
2018-03-31T23:12:22.507Z,4.20
2018-03-31T23:14:49.467Z,4.21
2018-03-31T23:17:16.441Z,4.21
2018-03-31T23:19:43.545Z,4.04
2018-03-31T23:22:10.838Z,4.12
2018-03-31T23:24:38.019Z,4.00
2018-03-31T23:27:05.025Z,3.99
2018-03-31T23:29:31.980Z,3.98
2018-03-31T23:31:58.944Z,4.04
2018-03-31T23:34:26.281Z,3.97
2018-03-31T23:36:53.238Z,3.96
2018-03-31T23:39:20.260Z,4.02
2018-03-31T23:41:47.244Z,3.95
2018-03-31T23:44:14.220Z,3.96
2018-03-31T23:46:41.171Z,3.99
2018-03-31T23:49:08.179Z,3.95
2018-03-31T23:51:35.176Z,4.01
2018-03-31T23:54:02.123Z,4.04
2018-03-31T23:56:29.125Z,3.91
2018-03-31T23:58:56.360Z,3.93
